Time;durP1;ratioP1;P1;durP2;ratioP2;P2;SDS_P1;SDS_P2;PMS_P1;PMS_P2;Temp;Humidity;BMP_temperature;BMP_pressure;BME280_temperature;BME280_humidity;BME280_pressure;Samples;Min_cycle;Max_cycle;Signal;HPM_P1;HPM_P2
2023/06/13 00:00:32;;;;;;;;;3.00;3.00;;;;;28.43;38.72;101068.44;5060755;28;45405;-76
2023/06/13 00:02:58;;;;;;;;;3.67;2.67;;;;;28.48;39.07;101075.81;5078174;28;45518;-75
2023/06/13 00:05:24;;;;;;;;;2.00;2.00;;;;;28.52;38.99;101074.38;5077478;28;46300;-76
2023/06/13 00:07:50;;;;;;;;;4.00;3.00;;;;;28.54;39.27;101077.63;5078622;28;45339;-76
2023/06/13 00:10:16;;;;;;;;;2.67;2.67;;;;;28.50;38.75;101071.06;5078795;28;45347;-76
2023/06/13 00:12:44;;;;;;;;;4.00;4.00;;;;;28.52;39.03;101074.38;5060509;28;45395;-76
2023/06/13 00:15:11;;;;;;;;;1.00;0.00;;;;;28.55;38.93;101071.22;5078370;27;45630;-75
2023/06/13 00:17:38;;;;;;;;;3.67;3.33;;;;;28.52;39.24;101069.03;5078530;28;45500;-76
2023/06/13 00:20:05;;;;;;;;;3.00;3.00;;;;;28.52;39.05;101069.03;5077985;28;45340;-76
2023/06/13 00:22:30;;;;;;;;;4.00;4.00;;;;;28.39;39.45;101041.28;5060256;28;45388;-76
2023/06/13 00:24:55;;;;;;;;;4.67;4.00;;;;;28.55;38.96;101065.88;5060249;28;45546;-76
2023/06/13 00:27:21;;;;;;;;;3.00;3.00;;;;;28.51;39.08;101052.13;5077508;28;45336;-76
2023/06/13 00:29:46;;;;;;;;;3.00;3.00;;;;;28.57;38.69;101057.66;5059868;28;45476;-76
2023/06/13 00:32:12;;;;;;;;;4.00;2.00;;;;;28.53;39.18;101051.91;5076865;28;45295;-76
2023/06/13 00:34:38;;;;;;;;;4.33;3.00;;;;;28.61;39.44;101053.47;5076797;28;45524;-76
2023/06/13 00:37:05;;;;;;;;;3.33;1.67;;;;;28.54;39.35;101037.50;5060227;28;45423;-76
2023/06/13 00:39:30;;;;;;;;;2.67;2.67;;;;;28.60;38.95;101047.31;5078394;28;45414;-76
2023/06/13 00:41:56;;;;;;;;;5.33;2.00;;;;;28.56;38.83;101031.91;5060529;28;45519;-76
2023/06/13 00:44:21;;;;;;;;;5.00;3.00;;;;;28.59;38.97;101032.31;5076654;28;47090;-76
2023/06/13 00:46:47;;;;;;;;;4.67;3.00;;;;;28.61;39.24;101034.75;5075980;28;45316;-76
2023/06/13 00:49:15;;;;;;;;;3.67;2.00;;;;;28.60;38.92;101033.09;5059981;28;45454;-75
2023/06/13 00:51:42;;;;;;;;;3.67;2.00;;;;;28.61;39.19;101032.06;5059705;28;45542;-75
2023/06/13 00:54:10;;;;;;;;;2.00;2.00;;;;;28.58;38.97;101029.81;5077964;28;46271;-76
2023/06/13 00:56:36;;;;;;;;;2.00;2.00;;;;;28.62;38.98;101033.72;5078011;28;45440;-76
2023/06/13 00:59:03;;;;;;;;;2.00;2.00;;;;;28.64;39.07;101036.97;5078100;28;45521;-76
2023/06/13 01:01:30;;;;;;;;;2.00;1.67;;;;;28.63;39.02;101029.97;5077706;28;45447;-76
2023/06/13 01:03:57;;;;;;;;;4.00;1.00;;;;;28.60;39.32;101025.06;5077451;28;46547;-76
2023/06/13 01:06:28;;;;;;;;;5.33;2.33;;;;;28.59;39.06;101024.28;5059273;28;45390;-76
2023/06/13 01:08:58;;;;;;;;;5.67;2.67;;;;;28.61;39.08;101016.84;5077456;28;45388;-76
2023/06/13 01:11:51;;;;;;;;;4.33;3.33;;;;;28.65;39.18;101025.22;5077922;28;45533;-76
2023/06/13 01:14:41;;;;;;;;;2.67;1.67;;;;;28.65;38.72;101016.41;5059514;28;47279;-76
2023/06/13 01:17:27;;;;;;;;;2.67;2.00;;;;;28.64;39.04;101012.91;5049172;28;45325;-76
2023/06/13 01:19:57;;;;;;;;;3.00;3.00;;;;;28.61;38.89;101007.97;5057272;28;45292;-76
2023/06/13 01:22:35;;;;;;;;;3.00;2.00;;;;;28.62;38.78;101007.75;5057356;28;45347;-76
2023/06/13 01:25:08;;;;;;;;;4.00;4.00;;;;;28.66;38.97;101010.81;5056924;28;46436;-76
2023/06/13 01:27:33;;;;;;;;;2.67;2.33;;;;;28.58;39.20;101000.38;5057023;28;45431;-76
2023/06/13 01:30:01;;;;;;;;;1.00;1.00;;;;;28.67;38.93;101012.47;5039006;28;45372;-76
2023/06/13 01:32:29;;;;;;;;;1.67;1.67;;;;;28.68;38.93;101010.56;5039128;28;45731;-76
2023/06/13 01:34:54;;;;;;;;;2.00;2.00;;;;;28.67;38.53;101001.75;5056796;28;46675;-76
2023/06/13 01:37:20;;;;;;;;;3.33;2.33;;;;;28.65;38.74;100994.97;5038808;28;45911;-76
2023/06/13 01:39:45;;;;;;;;;3.00;2.00;;;;;28.66;39.01;101004.63;5039187;28;45372;-75
2023/06/13 01:42:11;;;;;;;;;2.00;2.00;;;;;28.64;38.95;100996.84;5039286;28;45625;-76
2023/06/13 01:44:37;;;;;;;;;1.33;1.33;;;;;28.67;38.86;101003.59;5038699;28;46618;-76
2023/06/13 01:47:19;;;;;;;;;2.00;2.00;;;;;28.69;38.81;100999.66;5056419;28;45577;-76
2023/06/13 01:50:02;;;;;;;;;3.00;3.00;;;;;28.69;38.85;101009.53;5038567;28;46779;-76
2023/06/13 01:52:43;;;;;;;;;3.33;2.00;;;;;28.58;39.19;100987.00;5038504;28;45643;-76
2023/06/13 01:55:20;;;;;;;;;4.00;4.00;;;;;28.67;38.67;100999.06;5056593;28;46234;-76
2023/06/13 01:57:53;;;;;;;;;3.67;2.00;;;;;28.63;38.98;100993.34;5038533;28;45635;-76
2023/06/13 02:00:20;;;;;;;;;1.00;1.00;;;;;28.65;38.93;100995.78;5038299;28;45433;-76
2023/06/13 02:02:48;;;;;;;;;2.33;2.00;;;;;28.67;39.00;100996.41;5038554;28;45710;-76
2023/06/13 02:05:13;;;;;;;;;1.00;1.00;;;;;28.65;38.76;100989.63;5038176;28;45423;-76
2023/06/13 02:07:39;;;;;;;;;2.00;2.00;;;;;28.63;39.10;100987.97;5037994;28;45368;-76
2023/06/13 02:10:05;;;;;;;;;4.67;2.33;;;;;28.68;38.93;100999.88;5038412;28;45460;-76
2023/06/13 02:12:32;;;;;;;;;3.33;2.33;;;;;28.70;39.06;100998.59;5056123;28;45435;-76
2023/06/13 02:14:57;;;;;;;;;2.00;2.00;;;;;28.70;38.89;100997.81;5039765;28;46602;-76
2023/06/13 02:17:25;;;;;;;;;2.00;2.00;;;;;28.66;39.16;101000.09;5075537;28;45237;-76
2023/06/13 02:19:50;;;;;;;;;2.33;1.67;;;;;28.69;38.94;101005.00;5076822;28;46128;-76
2023/06/13 02:22:16;;;;;;;;;4.33;3.00;;;;;28.67;39.22;101001.75;5057601;28;45573;-76
2023/06/13 02:24:42;;;;;;;;;2.00;2.00;;;;;28.66;38.95;101002.78;5076362;28;45347;-76
2023/06/13 02:27:07;;;;;;;;;2.67;2.67;;;;;28.67;38.71;101007.09;5075398;28;45303;-76
2023/06/13 02:29:35;;;;;;;;;1.00;1.00;;;;;28.66;39.29;100996.59;5075733;28;45658;-76
2023/06/13 02:32:00;;;;;;;;;2.33;2.33;;;;;28.69;38.83;101005.00;5076302;28;45398;-77
2023/06/13 02:34:26;;;;;;;;;3.00;3.00;;;;;28.66;39.15;100992.06;5057985;28;47177;-76
2023/06/13 02:36:51;;;;;;;;;2.00;2.00;;;;;28.65;38.82;100993.09;5075762;28;45367;-76
2023/06/13 02:39:16;;;;;;;;;2.67;2.67;;;;;28.65;39.29;100995.78;5057403;28;45658;-76
2023/06/13 02:41:42;;;;;;;;;4.00;2.33;;;;;28.64;38.79;100980.78;5075305;28;45628;-76
2023/06/13 02:44:07;;;;;;;;;2.67;2.67;;;;;28.68;39.13;100984.63;5074221;28;47369;-76
2023/06/13 02:46:33;;;;;;;;;3.33;2.00;;;;;28.66;39.00;100981.38;5075971;28;45344;-76
2023/06/13 02:48:59;;;;;;;;;1.33;1.33;;;;;28.63;39.22;100974.59;5058166;28;45423;-76
2023/06/13 02:51:25;;;;;;;;;2.00;2.00;;;;;28.73;39.08;100992.00;5038595;28;45444;-76
2023/06/13 02:53:50;;;;;;;;;4.33;2.67;;;;;28.68;39.29;100981.13;5070849;28;48711;-76
2023/06/13 02:56:16;;;;;;;;;3.00;3.00;;;;;28.73;39.15;100986.63;5076088;28;45459;-77
2023/06/13 02:58:41;;;;;;;;;1.33;1.33;;;;;28.68;38.97;100983.81;5074606;28;45794;-76
2023/06/13 03:01:07;;;;;;;;;2.00;2.00;;;;;28.71;38.79;100984.19;5075341;28;45621;-76
2023/06/13 03:03:33;;;;;;;;;2.33;2.00;;;;;28.64;38.90;100970.06;5057783;28;46464;-76
2023/06/13 03:05:59;;;;;;;;;2.67;1.67;;;;;28.69;39.09;100982.78;5057463;28;45426;-76
2023/06/13 03:08:26;;;;;;;;;3.00;2.00;;;;;28.70;38.63;100979.06;5058050;28;45502;-76
2023/06/13 03:10:52;;;;;;;;;5.00;3.33;;;;;28.71;38.87;100986.03;5075661;28;45387;-76
2023/06/13 03:13:18;;;;;;;;;1.00;1.00;;;;;28.69;39.34;100982.78;5057528;28;45717;-77
2023/06/13 03:15:45;;;;;;;;;1.67;1.67;;;;;28.69;39.02;100986.28;5074513;27;45302;-77
2023/06/13 03:18:11;;;;;;;;;2.00;2.00;;;;;28.71;39.09;100994.06;5076567;28;45344;-76
2023/06/13 03:20:37;;;;;;;;;1.67;1.67;;;;;28.68;38.73;100984.63;5075621;28;45581;-77
2023/06/13 03:23:03;;;;;;;;;2.00;2.00;;;;;28.60;39.27;100975.03;5075632;28;46022;-76
2023/06/13 03:25:29;;;;;;;;;4.33;3.00;;;;;28.68;39.44;100981.94;5075920;28;45375;-76
2023/06/13 03:27:55;;;;;;;;;2.33;2.33;;;;;28.65;39.47;100985.06;5076865;28;45387;-76
2023/06/13 03:30:20;;;;;;;;;2.00;2.00;;;;;28.68;39.37;100983.81;5077867;28;45720;-77
2023/06/13 03:32:46;;;;;;;;;3.00;3.00;;;;;28.71;38.87;100986.88;5061084;28;45426;-76
2023/06/13 03:35:11;;;;;;;;;2.00;2.00;;;;;28.66;38.57;100976.00;5079187;28;45380;-77
2023/06/13 03:37:37;;;;;;;;;2.67;2.33;;;;;28.61;38.79;100968.66;5077925;28;45600;-76
2023/06/13 03:40:02;;;;;;;;;3.33;2.33;;;;;28.65;38.70;100982.38;5061468;28;45335;-77
2023/06/13 03:42:27;;;;;;;;;2.00;2.00;;;;;28.68;39.03;100995.34;5078825;28;47379;-76
2023/06/13 03:44:53;;;;;;;;;4.67;3.33;;;;;28.63;39.16;100996.00;5060789;28;46096;-76
2023/06/13 03:47:18;;;;;;;;;3.33;2.67;;;;;28.70;38.83;101011.19;5060812;28;45487;-76
2023/06/13 03:49:44;;;;;;;;;2.33;2.33;;;;;28.65;39.31;100995.78;5058874;28;45616;-76
2023/06/13 03:52:11;;;;;;;;;4.00;2.33;;;;;28.70;38.15;100993.25;5060631;28;46220;-77
2023/06/13 03:54:36;;;;;;;;;3.67;3.33;;;;;28.68;38.73;100987.31;5078815;28;45380;-77
2023/06/13 03:57:02;;;;;;;;;3.00;3.00;;;;;28.72;39.01;100991.19;5060443;28;45485;-76
2023/06/13 03:59:27;;;;;;;;;3.00;2.33;;;;;28.70;39.00;100995.94;5078219;28;45438;-76
2023/06/13 04:01:53;;;;;;;;;3.67;3.00;;;;;28.69;38.89;100999.66;5059898;28;47881;-77
2023/06/13 04:04:18;;;;;;;;;2.33;2.00;;;;;28.65;39.36;100985.06;5060543;28;45336;-76
2023/06/13 04:06:47;;;;;;;;;3.67;2.00;;;;;28.70;38.56;100987.91;5079067;28;45363;-76
2023/06/13 04:09:13;;;;;;;;;1.00;1.00;;;;;28.73;39.20;100992.81;5078147;28;45359;-75
2023/06/13 04:11:38;;;;;;;;;2.67;2.67;;;;;28.72;39.13;100993.03;5079060;28;45557;-76
2023/06/13 04:14:04;;;;;;;;;2.67;2.67;;;;;28.72;39.05;100996.53;5078801;28;45364;-76
2023/06/13 04:16:29;;;;;;;;;3.00;3.00;;;;;28.61;39.03;100974.00;5078398;28;45426;-76
2023/06/13 04:18:55;;;;;;;;;3.33;2.33;;;;;28.67;38.94;100996.41;5077351;28;45254;-77
2023/06/13 04:21:24;;;;;;;;;2.33;2.33;;;;;28.66;39.16;100984.03;5060443;28;48152;-77
2023/06/13 04:23:50;;;;;;;;;4.33;2.67;;;;;28.66;38.67;100983.22;5078090;28;45454;-77
2023/06/13 04:26:17;;;;;;;;;2.00;2.00;;;;;28.65;38.93;100982.38;5077663;28;45403;-76
2023/06/13 04:28:43;;;;;;;;;3.00;3.00;;;;;28.65;39.37;100985.06;5078172;28;45376;-77
2023/06/13 04:31:10;;;;;;;;;3.00;3.00;;;;;28.69;38.98;100988.97;5077533;28;45459;-77
2023/06/13 04:33:39;;;;;;;;;2.00;2.00;;;;;28.72;39.13;101001.91;5077602;28;45416;-76
2023/06/13 04:36:05;;;;;;;;;2.67;2.00;;;;;28.62;39.02;100983.66;5077386;28;45359;-77
2023/06/13 04:38:34;;;;;;;;;3.00;3.00;;;;;28.70;38.78;100995.94;5058760;28;45445;-76
2023/06/13 04:41:00;;;;;;;;;3.00;2.33;;;;;28.67;38.83;100987.53;5076972;28;46681;-76
2023/06/13 04:43:28;;;;;;;;;5.00;4.00;;;;;28.65;38.70;100989.63;5076897;28;45269;-76
2023/06/13 04:45:55;;;;;;;;;3.67;3.67;;;;;28.72;39.15;101003.75;5077368;28;45366;-76
2023/06/13 04:48:25;;;;;;;;;3.00;3.00;;;;;28.72;39.01;100990.38;5077711;28;45325;-76
2023/06/13 04:50:50;;;;;;;;;5.00;5.00;;;;;28.72;39.11;100993.03;5044915;28;46692;-76
2023/06/13 04:53:21;;;;;;;;;3.00;3.00;;;;;28.71;38.96;101000.25;5044990;28;46175;-77
2023/06/13 04:55:47;;;;;;;;;3.67;2.00;;;;;28.67;39.17;100992.91;5078094;28;45455;-76
2023/06/13 04:58:13;;;;;;;;;2.00;2.00;;;;;28.46;38.99;100961.00;5077889;28;45360;-76
2023/06/13 05:00:39;;;;;;;;;3.67;3.00;;;;;28.67;38.74;100996.41;5059548;28;48396;-79
2023/06/13 05:03:04;;;;;;;;;5.33;2.33;;;;;28.61;39.18;100987.38;5078211;28;45876;-76
2023/06/13 05:05:30;;;;;;;;;11.33;9.00;;;;;28.62;37.38;100986.34;5078808;28;45289;-78
2023/06/13 05:07:59;;;;;;;;;17.00;14.33;;;;;28.44;36.83;100997.00;5078851;28;45479;-77
2023/06/13 05:10:25;;;;;;;;;10.67;9.67;;;;;28.04;36.74;101007.84;5078094;28;46524;-76
2023/06/13 05:12:52;;;;;;;;;15.67;11.33;;;;;27.67;36.68;100995.09;5078846;28;45448;-76
2023/06/13 05:15:19;;;;;;;;;14.33;13.33;;;;;27.37;37.56;100996.50;5077539;28;45433;-79
2023/06/13 05:17:48;;;;;;;;;8.00;7.67;;;;;27.26;37.58;100995.31;5077247;28;45412;-79
2023/06/13 05:20:14;;;;;;;;;8.33;8.33;;;;;27.27;37.70;100998.81;5059229;28;48221;-80
2023/06/13 05:22:43;;;;;;;;;10.67;8.67;;;;;27.34;38.09;101001.44;5065237;28;45552;-80
2023/06/13 05:25:12;;;;;;;;;10.00;6.67;;;;;27.40;38.10;101012.09;5043211;28;45401;-79
2023/06/13 05:27:38;;;;;;;;;7.33;5.33;;;;;27.34;37.82;101006.78;5053249;27;45596;-78
2023/06/13 05:30:06;;;;;;;;;14.00;9.67;;;;;27.34;37.60;101006.78;5027035;28;45538;-79
2023/06/13 05:32:31;;;;;;;;;10.33;8.67;;;;;27.27;37.19;101012.16;5049379;28;45538;-79
2023/06/13 05:34:57;;;;;;;;;9.00;9.00;;;;;27.26;37.83;101015.88;5053080;28;45769;-79
2023/06/13 05:37:22;;;;;;;;;10.33;7.33;;;;;27.01;37.39;100977.28;5051100;28;45691;-79
2023/06/13 05:39:47;;;;;;;;;9.33;8.33;;;;;27.11;37.93;101006.25;5052028;28;46589;-79
2023/06/13 05:42:13;;;;;;;;;9.00;8.00;;;;;27.05;37.54;101005.22;5034457;28;45427;-78
2023/06/13 05:44:38;;;;;;;;;9.67;7.00;;;;;27.08;37.63;101017.34;5052215;28;45365;-79
2023/06/13 05:47:04;;;;;;;;;9.00;8.00;;;;;27.02;37.36;101004.81;5053633;28;46015;-79
2023/06/13 05:49:29;;;;;;;;;6.33;6.33;;;;;26.95;38.14;101000.34;5052548;28;46599;-79
2023/06/13 05:51:55;;;;;;;;;11.33;7.67;;;;;27.00;38.11;101013.06;5050720;28;45396;-80
2023/06/13 05:54:20;;;;;;;;;10.75;8.25;;;;;26.93;37.84;101002.38;5052411;28;45863;-79
2023/06/13 05:56:46;;;;;;;;;11.33;8.00;;;;;26.95;38.01;101010.19;5052233;28;45514;-72
2023/06/13 05:59:14;;;;;;;;;6.00;5.67;;;;;26.95;37.94;101005.69;5052814;28;45825;-72
2023/06/13 06:01:43;;;;;;;;;4.00;4.00;;;;;26.94;38.13;101006.69;5052203;28;45494;-72
2023/06/13 06:04:09;;;;;;;;;8.00;7.33;;;;;26.98;38.17;101009.78;5052342;28;45344;-72
2023/06/13 06:06:34;;;;;;;;;9.67;7.33;;;;;27.03;37.58;101014.47;5052322;28;45519;-72
2023/06/13 06:09:00;;;;;;;;;7.33;7.00;;;;;27.07;37.98;101013.03;5052336;28;45988;-72
2023/06/13 06:11:26;;;;;;;;;5.33;5.33;;;;;27.14;37.87;101013.03;5051619;28;45523;-71
2023/06/13 06:13:51;;;;;;;;;8.67;6.67;;;;;27.17;37.97;101007.25;5052135;28;45353;-72
2023/06/13 06:16:16;;;;;;;;;6.67;6.00;;;;;27.20;37.84;101006.00;5065678;28;45605;-72
2023/06/13 06:18:42;;;;;;;;;9.00;8.00;;;;;27.22;38.04;100995.97;5072116;28;46017;-72
2023/06/13 06:21:07;;;;;;;;;9.00;8.00;;;;;27.22;37.44;100996.75;5071372;28;45989;-71
2023/06/13 06:23:32;;;;;;;;;9.00;7.00;;;;;27.24;37.80;100994.72;5053142;28;45874;-71
2023/06/13 06:25:58;;;;;;;;;7.67;7.00;;;;;27.26;37.83;100987.31;5052126;28;45573;-71
2023/06/13 06:28:23;;;;;;;;;10.67;9.00;;;;;27.30;37.46;100990.34;5052066;28;45360;-71
2023/06/13 06:30:48;;;;;;;;;6.00;6.00;;;;;27.33;37.82;100989.09;5051710;28;46705;-72
2023/06/13 06:33:14;;;;;;;;;6.33;5.33;;;;;27.36;37.85;100981.50;5065991;28;45510;-71
2023/06/13 06:35:39;;;;;;;;;7.67;7.00;;;;;27.39;37.71;100988.25;5062966;28;45534;-72
2023/06/13 06:38:04;;;;;;;;;7.67;6.00;;;;;27.39;37.19;100975.75;5052267;28;46147;-72
2023/06/13 06:40:30;;;;;;;;;8.33;8.33;;;;;27.43;37.56;100977.97;5052206;27;45520;-71
2023/06/13 06:42:55;;;;;;;;;6.00;6.00;;;;;27.45;37.62;100967.91;5051952;28;46007;-72
2023/06/13 06:45:21;;;;;;;;;5.67;5.67;;;;;27.47;37.53;100972.00;5058446;28;45407;-71
2023/06/13 06:47:46;;;;;;;;;6.00;5.67;;;;;27.52;37.04;100968.66;5053502;28;46866;-71
2023/06/13 06:50:12;;;;;;;;;12.67;9.00;;;;;27.57;37.55;100973.38;5051594;28;45896;-72
2023/06/13 06:52:37;;;;;;;;;9.00;8.00;;;;;27.58;37.02;100980.34;5051928;28;45521;-72
2023/06/13 06:55:03;;;;;;;;;8.00;7.00;;;;;27.60;37.11;100987.13;5055285;28;45349;-72
2023/06/13 06:57:29;;;;;;;;;9.00;7.00;;;;;27.59;36.87;100990.00;5055579;28;46154;-72
2023/06/13 06:59:54;;;;;;;;;7.00;5.33;;;;;27.62;37.67;100986.91;5071705;28;45422;-72
2023/06/13 07:02:20;;;;;;;;;8.67;6.33;;;;;27.65;37.03;100991.00;5057332;28;45555;-71
2023/06/13 07:04:46;;;;;;;;;7.00;6.67;;;;;27.68;36.98;100988.72;5050824;28;45443;-71
2023/06/13 07:07:11;;;;;;;;;7.00;5.67;;;;;27.72;37.39;100991.75;5052018;28;45418;-71
2023/06/13 07:09:36;;;;;;;;;6.00;6.00;;;;;27.77;37.12;100999.97;5072450;28;45493;-72
2023/06/13 07:12:02;;;;;;;;;5.00;5.00;;;;;27.82;36.96;101000.16;5058252;28;45590;-71
2023/06/13 07:14:27;;;;;;;;;7.67;4.00;;;;;27.85;37.23;100997.06;5051799;28;45517;-71
2023/06/13 07:16:54;;;;;;;;;5.67;5.67;;;;;27.91;37.03;100995.38;5069320;28;47124;-71
2023/06/13 07:19:20;;;;;;;;;5.00;4.00;;;;;27.94;37.15;100988.78;5071302;28;45497;-71
2023/06/13 07:21:46;;;;;;;;;5.00;4.33;;;;;28.00;36.96;100992.44;5071860;27;45415;-71
2023/06/13 07:24:11;;;;;;;;;5.50;4.50;;;;;28.02;36.65;100996.53;5071667;28;45482;-71
2023/06/13 07:26:36;;;;;;;;;4.33;4.33;;;;;28.05;37.20;100993.41;5071642;27;45484;-70
2023/06/13 07:29:02;;;;;;;;;4.00;3.00;;;;;28.09;36.86;100991.13;5071903;27;45276;-71
2023/06/13 07:31:27;;;;;;;;;5.00;5.00;;;;;28.11;36.84;100989.03;5071652;27;46400;-71
2023/06/13 07:33:53;;;;;;;;;2.33;2.33;;;;;28.14;37.42;100987.78;5070030;28;45880;-71
2023/06/13 07:36:19;;;;;;;;;3.00;3.00;;;;;28.16;37.12;100986.53;5071578;27;46182;-71
2023/06/13 07:38:44;;;;;;;;;4.00;4.00;;;;;28.19;36.66;100982.59;5067978;27;45524;-71
2023/06/13 07:41:10;;;;;;;;;3.00;3.00;;;;;28.21;37.08;100979.72;5070357;28;45407;-71
2023/06/13 07:43:35;;;;;;;;;4.00;4.00;;;;;28.22;37.23;100979.50;5071541;28;45222;-72
2023/06/13 07:46:01;;;;;;;;;5.00;5.00;;;;;28.23;36.87;100978.47;5068261;28;46248;-72
2023/06/13 07:48:26;;;;;;;;;4.67;4.67;;;;;28.24;36.73;100982.75;5070832;28;45355;-71
2023/06/13 07:50:51;;;;;;;;;3.33;3.33;;;;;28.28;36.79;100986.66;5071136;28;45580;-71
2023/06/13 07:53:17;;;;;;;;;3.67;3.00;;;;;28.30;36.60;100986.44;5071515;27;45442;-72
2023/06/13 07:55:46;;;;;;;;;5.00;4.67;;;;;28.32;37.25;100987.00;5071298;28;47108;-71
2023/06/13 07:58:12;;;;;;;;;3.33;3.33;;;;;28.34;37.09;100986.81;5070039;28;45424;-71
2023/06/13 08:00:37;;;;;;;;;5.00;5.00;;;;;28.35;37.19;100978.56;5068999;28;45429;-71
2023/06/13 08:03:03;;;;;;;;;2.00;2.00;;;;;28.36;37.23;100984.72;5071024;27;47270;-72
2023/06/13 08:05:28;;;;;;;;;4.33;4.33;;;;;28.39;36.77;100976.28;5071066;27;45335;-71
2023/06/13 08:07:54;;;;;;;;;6.00;6.00;;;;;28.40;37.40;100980.56;5070885;28;46452;-71
2023/06/13 08:10:19;;;;;;;;;6.33;6.33;;;;;28.40;37.15;100975.22;5070778;28;45560;-70
2023/06/13 08:12:45;;;;;;;;;3.67;3.67;;;;;28.44;37.10;100981.78;5069899;28;45367;-71
2023/06/13 08:15:10;;;;;;;;;5.67;5.00;;;;;28.46;37.44;100989.59;5073309;28;46173;-72
2023/06/13 08:17:41;;;;;;;;;5.00;4.00;;;;;28.45;37.01;100982.59;5074342;27;45553;-71
2023/06/13 08:20:08;;;;;;;;;6.00;4.00;;;;;28.49;37.14;100983.81;5074211;27;45506;-71
2023/06/13 08:22:34;;;;;;;;;4.00;4.00;;;;;28.49;37.02;100978.47;5074898;28;45508;-71
2023/06/13 08:25:00;;;;;;;;;3.00;3.00;;;;;28.51;36.78;100982.56;5074755;28;47727;-71
2023/06/13 08:27:25;;;;;;;;;4.00;4.00;;;;;28.52;37.35;100983.38;5073955;28;45341;-71
2023/06/13 08:29:51;;;;;;;;;6.00;5.00;;;;;28.53;37.31;100979.66;5074396;28;45217;-71
2023/06/13 08:32:17;;;;;;;;;5.00;5.00;;;;;28.44;37.14;100965.72;5073767;28;45913;-71
2023/06/13 08:34:42;;;;;;;;;4.67;4.00;;;;;28.54;37.20;100983.97;5074241;27;46169;-71
2023/06/13 08:37:07;;;;;;;;;5.33;4.67;;;;;28.56;36.85;100975.72;5074123;27;45553;-71
2023/06/13 08:39:33;;;;;;;;;5.00;5.00;;;;;28.55;37.14;100969.53;5074206;27;45374;-72
2023/06/13 08:41:58;;;;;;;;;4.00;4.00;;;;;28.57;37.39;100986.22;5073456;28;45503;-70
2023/06/13 08:44:25;;;;;;;;;6.67;6.67;;;;;28.58;36.90;100981.66;5073447;27;45993;-71
2023/06/13 08:46:51;;;;;;;;;5.33;5.33;;;;;28.58;37.58;100981.66;5074077;28;45398;-71
2023/06/13 08:49:16;;;;;;;;;8.00;8.00;;;;;28.55;37.12;100974.88;5073665;28;45403;-71
2023/06/13 08:51:45;;;;;;;;;4.00;4.00;;;;;28.57;37.52;100975.50;5074137;28;45352;-71
2023/06/13 08:54:13;;;;;;;;;5.00;5.00;;;;;28.56;37.49;100970.34;5072809;28;46568;-71
2023/06/13 08:56:43;;;;;;;;;4.00;4.00;;;;;28.59;37.05;100967.25;5072849;28;45505;-71
2023/06/13 08:59:13;;;;;;;;;6.67;6.67;;;;;28.59;37.19;100972.59;5073198;28;45525;-69
2023/06/13 09:01:39;;;;;;;;;5.00;5.00;;;;;28.59;37.42;100973.41;5073139;28;45373;-70
2023/06/13 09:04:08;;;;;;;;;4.00;4.00;;;;;28.59;37.30;100975.28;5071779;28;46580;-71
2023/06/13 09:06:34;;;;;;;;;5.00;5.00;;;;;28.57;37.09;100967.47;5073069;27;46104;-70
2023/06/13 09:09:01;;;;;;;;;8.00;6.00;;;;;28.61;37.51;100967.84;5074153;28;45618;-70
2023/06/13 09:11:28;;;;;;;;;5.00;5.00;;;;;28.62;37.14;100962.25;5073376;28;45672;-70
2023/06/13 09:13:55;;;;;;;;;8.67;6.00;;;;;28.61;37.57;100963.31;5073384;28;45450;-71
2023/06/13 09:16:21;;;;;;;;;5.67;5.67;;;;;28.64;37.47;100964.72;5072301;27;45362;-70
2023/06/13 09:18:49;;;;;;;;;6.67;6.33;;;;;28.64;37.49;100959.34;5072081;28;45506;-71
2023/06/13 09:21:15;;;;;;;;;7.00;6.33;;;;;28.68;37.56;100957.03;5073192;28;45431;-71
2023/06/13 09:23:40;;;;;;;;;6.67;6.67;;;;;28.68;37.97;100952.50;5072871;27;46882;-71
2023/06/13 09:26:08;;;;;;;;;5.33;5.33;;;;;28.69;37.76;100950.66;5073081;27;45449;-72
2023/06/13 09:28:42;;;;;;;;;7.00;6.00;;;;;28.71;37.50;100951.25;5071208;28;45378;-71
2023/06/13 09:31:08;;;;;;;;;7.33;6.33;;;;;28.70;37.59;100953.09;5072976;28;45965;-71
2023/06/13 09:33:37;;;;;;;;;7.33;4.67;;;;;28.73;37.25;100958.00;5073288;28;45487;-71
2023/06/13 09:36:07;;;;;;;;;7.00;5.00;;;;;28.77;37.72;100960.25;5071375;28;45402;-71
2023/06/13 09:38:40;;;;;;;;;5.33;5.00;;;;;28.78;37.42;100957.34;5073520;28;45554;-71
2023/06/13 09:41:13;;;;;;;;;3.67;3.67;;;;;28.76;37.65;100950.56;5073534;28;45500;-71
2023/06/13 09:43:39;;;;;;;;;5.00;5.00;;;;;28.78;37.37;100943.94;5071956;28;46294;-71
2023/06/13 09:46:05;;;;;;;;;5.67;5.67;;;;;28.80;37.17;100946.41;5073295;27;45213;-71
2023/06/13 09:48:31;;;;;;;;;9.00;7.33;;;;;28.84;37.48;100944.91;5073350;27;45362;-70
2023/06/13 09:50:56;;;;;;;;;7.67;7.00;;;;;28.84;37.97;100944.91;5072775;28;45668;-70
2023/06/13 09:53:22;;;;;;;;;5.00;5.00;;;;;28.85;38.01;100949.25;5072112;28;45678;-71
2023/06/13 09:55:50;;;;;;;;;8.00;7.00;;;;;28.87;37.87;100943.66;5071979;28;45893;-71
2023/06/13 09:58:16;;;;;;;;;9.33;6.67;;;;;28.87;37.96;100947.16;5071997;27;45608;-71
2023/06/13 10:00:41;;;;;;;;;5.67;5.67;;;;;28.88;37.65;100937.25;5072263;28;45433;-71
2023/06/13 10:03:07;;;;;;;;;6.67;5.67;;;;;28.87;37.75;100936.44;5072501;28;45423;-71
2023/06/13 10:05:32;;;;;;;;;8.67;7.00;;;;;28.89;38.25;100938.88;5071921;28;45570;-71
2023/06/13 10:07:57;;;;;;;;;5.67;5.67;;;;;28.87;37.38;100944.47;5072362;27;45529;-70
2023/06/13 10:10:23;;;;;;;;;5.67;5.67;;;;;28.88;38.10;100939.94;5071500;28;45691;-71
2023/06/13 10:12:51;;;;;;;;;8.33;8.33;;;;;28.88;37.73;100939.94;5071346;28;46410;-71
2023/06/13 10:15:28;;;;;;;;;6.00;6.00;;;;;28.89;38.01;100942.38;5071928;28;46056;-71
2023/06/13 10:17:59;;;;;;;;;5.33;5.33;;;;;28.89;37.76;100939.69;5071098;28;45488;-71
2023/06/13 10:20:28;;;;;;;;;12.67;8.00;;;;;28.89;37.58;100938.88;5072399;28;45875;-71
2023/06/13 10:22:57;;;;;;;;;7.67;7.33;;;;;28.91;37.54;100942.97;5072369;27;47955;-71
2023/06/13 10:25:27;;;;;;;;;5.67;5.67;;;;;28.92;38.20;100941.13;5071766;28;45323;-70
2023/06/13 10:27:55;;;;;;;;;8.00;8.00;;;;;28.92;37.75;100943.78;5071542;28;45576;-71
2023/06/13 10:30:37;;;;;;;;;7.33;7.33;;;;;28.93;37.78;100932.03;5071387;28;45335;-73
2023/06/13 10:33:05;;;;;;;;;5.33;5.33;;;;;28.94;37.39;100939.84;5068629;28;46394;-74
2023/06/13 10:35:40;;;;;;;;;8.33;8.00;;;;;28.95;37.98;100936.13;5071838;28;45459;-71
2023/06/13 10:38:24;;;;;;;;;7.00;7.00;;;;;28.95;37.57;100935.31;5071119;28;45663;-75
2023/06/13 10:40:58;;;;;;;;;8.67;7.33;;;;;28.95;37.71;100938.00;5072070;28;45421;-72
2023/06/13 10:43:53;;;;;;;;;7.00;7.00;;;;;28.97;37.93;100938.56;5071185;28;46129;-72
2023/06/13 10:46:18;;;;;;;;;6.33;6.33;;;;;28.98;37.50;100937.53;5070297;28;45431;-72
2023/06/13 10:48:52;;;;;;;;;8.00;7.67;;;;;28.98;37.70;100944.75;5070670;28;45503;-72
2023/06/13 10:51:22;;;;;;;;;7.00;7.00;;;;;28.99;37.79;100941.03;5071942;28;45552;-72
2023/06/13 10:54:17;;;;;;;;;8.00;8.00;;;;;28.99;37.24;100939.16;5070174;28;46398;-73
2023/06/13 10:56:43;;;;;;;;;8.00;7.33;;;;;29.00;37.74;100926.59;5069477;27;45529;-72
2023/06/13 10:59:14;;;;;;;;;8.00;7.00;;;;;29.01;37.98;100925.56;5071489;28;45354;-73
2023/06/13 11:01:41;;;;;;;;;9.00;9.00;;;;;29.02;38.01;100932.53;5071926;28;45464;-72
2023/06/13 11:04:14;;;;;;;;;7.00;7.00;;;;;29.02;37.50;100933.34;5071437;28;47232;-73
2023/06/13 11:06:42;;;;;;;;;9.00;8.00;;;;;29.02;37.81;100919.16;5071629;28;45363;-72
2023/06/13 11:09:22;;;;;;;;;5.67;5.00;;;;;29.03;37.50;100928.81;5071266;27;45421;-73
2023/06/13 11:11:52;;;;;;;;;6.67;6.67;;;;;29.02;37.79;100924.50;5071280;28;45568;-72
2023/06/13 11:14:25;;;;;;;;;6.67;6.67;;;;;29.02;37.89;100922.66;5085966;27;47499;-73
2023/06/13 11:16:51;;;;;;;;;6.00;6.00;;;;;29.01;37.66;100931.75;5071604;28;46459;-73
2023/06/13 11:19:26;;;;;;;;;8.67;6.00;;;;;29.01;37.48;100928.25;5070810;27;45470;-72
2023/06/13 11:22:10;;;;;;;;;8.33;8.33;;;;;29.00;38.00;100919.38;5071774;27;45494;-72
2023/06/13 11:24:36;;;;;;;;;9.00;9.00;;;;;28.99;37.73;100911.59;5068527;27;45565;-72